KLTS

Altus AFB Airport

Altus, Oklahoma, USA
METAR KLTS 151856Z AUTO 26008KT 10SM CLR 11/M08 A3023 RMK AO2 SLP241 T01111077 $
Observed Flight Rules
Dec-15 @ 18:56 UTC (41 minutes ago) Visual Flight Rules
Wind Visibility Clouds
260° at 8 knots 10 miles
  • Clear skies
Temperatures Readings
Current 11°C / 52°F
Dewpoint -8°C / 18°F
Humidity 26%
Altimeter 30.23" Hg
Pressure 1024.1 hPa
Elevation 420
METAR KLTS 151856Z AUTO 26008KT 10SM CLR 11/M08 A3023 RMK AO2 SLP241 T01111077 $
Observed Flight Rules
Dec-15 @ 18:56 UTC
(41 minutes ago)
VFR
Wind Visibility
260° at 8 knots 10 miles
Clouds
  • Clear skies
Temperature Dewpoint
11°C / 52°F -8°C / 18°F
Humidity Altimeter Pressure
26% 30.23" Hg 1024.1 hPa